createdAt,value
2018-07-03T00:00:09.239Z,5.23
2018-07-03T00:06:04.229Z,5.83
2018-07-03T00:11:59.227Z,5.83
2018-07-03T00:17:54.221Z,5.62
2018-07-03T00:23:49.275Z,6.62
2018-07-03T00:29:44.228Z,5.9
2018-07-03T00:35:39.211Z,6.04
2018-07-03T00:41:34.249Z,7.18
2018-07-03T00:47:29.250Z,7.77
2018-07-03T00:53:24.220Z,7.55
2018-07-03T00:59:19.246Z,7.9
2018-07-03T01:05:14.181Z,8.47
2018-07-03T01:11:09.221Z,8.08
2018-07-03T01:17:04.241Z,8.15
2018-07-03T01:22:59.267Z,8.5
2018-07-03T01:28:54.312Z,7.6
2018-07-03T01:34:49.268Z,7.63
2018-07-03T01:40:44.299Z,7.99
2018-07-03T01:46:39.203Z,9.81
2018-07-03T01:52:34.229Z,15.11
2018-07-03T01:58:29.255Z,20.41
2018-07-03T02:04:24.222Z,17.29
2018-07-03T02:10:19.196Z,12.93
2018-07-03T02:16:14.221Z,7.62
2018-07-03T02:22:09.234Z,7.11
2018-07-03T02:28:04.209Z,7.36
2018-07-03T02:33:59.217Z,8
2018-07-03T02:39:54.210Z,8.27
2018-07-03T02:45:49.202Z,7.89
2018-07-03T02:51:44.285Z,7.86
2018-07-03T02:57:39.230Z,7.37
2018-07-03T03:03:34.269Z,6.66
2018-07-03T03:09:29.277Z,6.41
2018-07-03T03:15:24.284Z,6.66
2018-07-03T03:21:19.224Z,6.96
2018-07-03T03:27:14.295Z,7.01
2018-07-03T03:33:09.242Z,7.32
2018-07-03T03:39:04.272Z,7.02
2018-07-03T03:44:59.294Z,7.08
2018-07-03T03:50:54.290Z,6.78
2018-07-03T03:56:49.219Z,7.22
2018-07-03T04:02:44.239Z,7.67
2018-07-03T04:08:39.276Z,7.84
2018-07-03T04:14:34.246Z,8.71
2018-07-03T04:20:29.256Z,8.87
2018-07-03T04:26:24.235Z,8.19
2018-07-03T04:32:19.266Z,9.23
2018-07-03T04:38:14.239Z,9.13
2018-07-03T04:44:09.306Z,9.32
2018-07-03T04:50:04.266Z,9.53
2018-07-03T04:55:59.257Z,9.6
2018-07-03T05:01:54.213Z,9.59
2018-07-03T05:07:49.267Z,8.98
2018-07-03T05:13:44.285Z,9.67
2018-07-03T05:19:39.266Z,9.35
2018-07-03T05:25:34.281Z,9.11
2018-07-03T05:31:29.431Z,8.77
2018-07-03T05:37:24.262Z,9.32
2018-07-03T05:43:19.284Z,11.6
2018-07-03T05:49:14.253Z,12.59
2018-07-03T05:55:09.462Z,9.71
2018-07-03T06:01:04.311Z,11.12
2018-07-03T06:06:59.239Z,10.11
2018-07-03T06:12:54.300Z,10.6
2018-07-03T06:18:49.287Z,10.71
2018-07-03T06:24:44.315Z,11.81
2018-07-03T06:30:39.268Z,10.8
2018-07-03T06:36:34.304Z,9.85
2018-07-03T06:42:29.252Z,8.74
2018-07-03T06:48:24.270Z,8.36
2018-07-03T06:54:19.268Z,9.14
2018-07-03T07:00:14.295Z,9.12
2018-07-03T07:06:09.278Z,12.34
2018-07-03T07:12:04.331Z,11.64
2018-07-03T07:17:59.278Z,13.76
2018-07-03T07:23:54.332Z,17.1
2018-07-03T07:29:49.291Z,69.49
2018-07-03T07:35:44.379Z,52.45
2018-07-03T07:41:39.309Z,13.36
2018-07-03T07:47:34.254Z,13.41
2018-07-03T07:53:29.336Z,10.46
2018-07-03T07:59:24.253Z,11.26
2018-07-03T08:05:19.255Z,11.63
2018-07-03T08:11:14.257Z,8.55
2018-07-03T08:17:09.262Z,9.14
2018-07-03T08:23:04.237Z,10.29
2018-07-03T08:28:59.261Z,8.91
2018-07-03T08:34:54.309Z,9.23
2018-07-03T08:40:49.297Z,9.8
2018-07-03T08:46:44.339Z,8.68
2018-07-03T08:52:39.292Z,10.07
2018-07-03T08:58:34.306Z,10.13
2018-07-03T09:04:29.345Z,9.97
2018-07-03T09:10:24.317Z,10.83
2018-07-03T09:16:19.368Z,9.01
2018-07-03T09:22:14.348Z,9.16
2018-07-03T09:28:09.333Z,8.68
2018-07-03T09:34:04.301Z,9.81
2018-07-03T09:39:59.268Z,10.27
2018-07-03T09:51:49.292Z,9.01
2018-07-03T09:51:49.310Z,10.8
2018-07-03T09:57:44.367Z,8.15
2018-07-03T10:09:34.350Z,8.82
2018-07-03T10:09:34.372Z,7.91
2018-07-03T10:15:29.300Z,8
2018-07-03T10:21:24.326Z,8.22
2018-07-03T10:27:19.278Z,8.77
2018-07-03T10:33:14.379Z,9.6
2018-07-03T10:39:09.273Z,9.1
2018-07-03T10:45:04.310Z,7.4
2018-07-03T10:50:59.347Z,6.71
2018-07-03T10:56:54.313Z,7.3
2018-07-03T11:02:49.282Z,7.58
2018-07-03T11:08:44.303Z,7.93
2018-07-03T11:14:39.354Z,8.2
2018-07-03T11:20:34.291Z,8.61
2018-07-03T11:26:29.331Z,8.56
2018-07-03T11:32:28.258Z,8.2
2018-07-03T14:00:19.331Z,8.24
2018-07-03T14:06:14.293Z,15.25
2018-07-03T14:12:09.349Z,10.86
2018-07-03T14:18:04.405Z,10.96
2018-07-03T14:23:59.378Z,10.08
2018-07-03T14:29:54.397Z,10.33
2018-07-03T14:35:49.324Z,10.23
2018-07-03T14:41:44.354Z,10.3
2018-07-03T14:53:34.320Z,9.18
2018-07-03T14:59:29.387Z,9.25
2018-07-03T15:05:24.330Z,9.84
2018-07-03T15:11:19.316Z,8.91
2018-07-03T15:17:14.419Z,9.09
2018-07-03T15:23:09.394Z,9.48
2018-07-03T15:29:04.348Z,8.42
2018-07-03T15:34:59.331Z,9
2018-07-03T15:40:54.330Z,9.28
2018-07-03T15:46:49.315Z,8.77
2018-07-03T15:52:44.339Z,8.87
2018-07-03T15:58:39.323Z,8.31
2018-07-03T16:04:34.338Z,8.34
2018-07-03T16:10:29.378Z,8.91
2018-07-03T16:16:24.371Z,8.81
2018-07-03T16:22:19.340Z,8.26
2018-07-03T16:40:04.364Z,8.48
2018-07-03T16:40:04.418Z,8.8
2018-07-03T16:40:04.429Z,8.8
2018-07-03T16:45:59.360Z,8.3
2018-07-03T16:51:54.939Z,8.6
2018-07-03T16:57:49.346Z,8.23
2018-07-03T20:07:09.427Z,7.49
2018-07-03T20:13:04.488Z,9.1
2018-07-03T20:18:59.487Z,9.25
2018-07-03T20:24:54.455Z,8.87
2018-07-03T20:30:49.402Z,9.83
2018-07-03T20:36:44.421Z,9.44
2018-07-03T20:42:39.433Z,11.12
2018-07-03T20:48:34.400Z,9.59
2018-07-03T20:54:29.356Z,9.78
2018-07-03T21:00:24.424Z,10.1
2018-07-03T21:06:19.426Z,9.41
2018-07-03T21:12:14.378Z,10.43
2018-07-03T21:18:09.392Z,10.24
2018-07-03T21:24:04.409Z,11.02
2018-07-03T21:29:59.383Z,10.6
2018-07-03T21:35:54.442Z,10.02
2018-07-03T21:41:49.421Z,11.07
2018-07-03T21:47:44.379Z,10.93
2018-07-03T21:53:39.391Z,10.97
2018-07-03T21:59:34.418Z,12.03
2018-07-03T22:05:29.413Z,12
2018-07-03T22:11:24.375Z,11.1
2018-07-03T22:17:19.403Z,11.27
2018-07-03T22:23:14.457Z,11.51
2018-07-03T22:29:09.418Z,11.31
2018-07-03T22:35:04.383Z,10.48
2018-07-03T22:40:59.445Z,12.21
2018-07-03T22:46:54.455Z,11.7
2018-07-03T22:52:49.458Z,11.77
2018-07-03T22:58:44.404Z,10.64
2018-07-03T23:04:39.400Z,11.49
2018-07-03T23:10:34.406Z,12.96
2018-07-03T23:16:29.409Z,11.55
2018-07-03T23:22:24.441Z,10.77
2018-07-03T23:28:19.444Z,10.82
2018-07-03T23:34:14.464Z,11.01
2018-07-03T23:40:09.460Z,11.82
2018-07-03T23:51:59.413Z,11.18
2018-07-03T23:51:59.421Z,11.47
2018-07-03T23:57:54.469Z,11.22
